createdAt,value
2023-04-08T06:18:52.914Z,10.00
2023-04-08T06:21:19.862Z,10.00
2023-04-08T06:23:46.632Z,10.00
2023-04-08T06:26:13.724Z,9.98
2023-04-08T06:28:40.643Z,10.00
2023-04-08T06:31:07.477Z,9.93
2023-04-08T06:33:34.344Z,10.08
2023-04-08T06:36:05.762Z,10.05
2023-04-08T06:38:32.693Z,10.00
2023-04-08T06:41:03.953Z,10.10
2023-04-08T06:43:31.346Z,10.18
2023-04-08T06:45:58.340Z,10.21
2023-04-08T06:48:30.856Z,10.21
2023-04-08T06:50:58.790Z,10.30
2023-04-08T06:53:26.571Z,10.40
2023-04-08T06:55:53.424Z,10.47
2023-04-08T06:58:20.292Z,10.44
2023-04-08T07:00:47.507Z,10.62
2023-04-08T07:03:14.443Z,10.74
2023-04-08T07:05:42.406Z,10.74
2023-04-08T07:08:09.490Z,10.73
2023-04-08T07:10:37.129Z,10.78
2023-04-08T07:13:04.214Z,10.83
2023-04-08T07:15:31.336Z,10.93
2023-04-08T07:17:59.015Z,10.98
2023-04-08T07:20:26.394Z,11.05
2023-04-08T07:22:53.401Z,11.10
2023-04-08T07:25:20.197Z,11.13
2023-04-08T07:27:47.134Z,11.18
2023-04-08T07:30:13.975Z,11.15
2023-04-08T07:32:41.244Z,11.29
2023-04-08T07:35:08.330Z,11.31
2023-04-08T07:37:35.180Z,11.32
2023-04-08T07:40:02.057Z,11.40
2023-04-08T07:42:29.247Z,11.42
2023-04-08T07:44:56.145Z,11.49
2023-04-08T07:47:23.234Z,11.55
2023-04-08T07:49:50.380Z,11.61
2023-04-08T07:52:17.247Z,11.68
2023-04-08T07:54:44.059Z,11.73
2023-04-08T07:57:10.958Z,11.78
2023-04-08T07:59:37.790Z,11.83
2023-04-08T08:02:04.756Z,11.88
2023-04-08T08:04:32.080Z,11.95
2023-04-08T08:06:59.107Z,12.00
2023-04-08T08:09:26.087Z,12.05
2023-04-08T08:11:52.906Z,12.09
2023-04-08T08:14:19.894Z,12.14
2023-04-08T08:16:46.787Z,12.23
2023-04-08T08:19:14.661Z,12.28
2023-04-08T08:21:41.707Z,12.31
2023-04-08T08:24:08.615Z,12.36
2023-04-08T08:26:37.255Z,12.44
2023-04-08T08:29:05.035Z,12.50
2023-04-08T08:31:31.882Z,12.56
2023-04-08T08:33:58.741Z,12.60
2023-04-08T08:36:25.560Z,12.64
2023-04-08T08:38:54.281Z,12.72
2023-04-08T08:41:21.913Z,12.75
2023-04-08T08:43:49.352Z,12.79
2023-04-08T08:46:18.895Z,12.84
2023-04-08T08:48:46.451Z,12.88
2023-04-08T08:51:14.019Z,12.95
2023-04-08T08:53:45.594Z,13.00
2023-04-08T08:56:18.228Z,13.05
2023-04-08T08:58:47.821Z,13.11
2023-04-08T09:01:41.544Z,13.17
2023-04-08T09:04:20.121Z,13.24
2023-04-08T09:06:50.366Z,13.28
2023-04-08T09:09:18.004Z,13.31
2023-04-08T09:11:46.591Z,13.36
2023-04-08T09:14:22.958Z,13.42
2023-04-08T09:16:50.928Z,13.47
2023-04-08T09:19:17.842Z,13.52
2023-04-08T09:21:45.125Z,13.58
2023-04-08T09:24:31.318Z,13.64
2023-04-08T09:26:58.148Z,13.68
2023-04-08T09:29:28.163Z,13.72
2023-04-08T09:32:01.809Z,13.75
2023-04-08T09:34:29.898Z,13.81
2023-04-08T09:36:56.970Z,13.85
2023-04-08T09:39:24.317Z,13.88
2023-04-08T09:41:52.144Z,13.90
2023-04-08T09:44:21.363Z,13.93
2023-04-08T09:46:52.803Z,13.95
2023-04-08T09:49:19.648Z,13.96
2023-04-08T09:52:09.576Z,13.97
2023-04-08T09:55:06.850Z,14.00
2023-04-08T09:57:43.451Z,14.03
2023-04-08T10:00:13.551Z,14.06
2023-04-08T10:02:54.252Z,14.10
2023-04-08T10:05:21.608Z,14.12
2023-04-08T10:07:49.289Z,14.12
2023-04-08T10:10:16.635Z,14.16
2023-04-08T10:12:43.686Z,14.18
2023-04-08T10:15:24.008Z,14.24
2023-04-08T10:17:52.023Z,14.27
2023-04-08T10:20:36.658Z,14.27
2023-04-08T10:23:07.752Z,14.28
2023-04-08T10:25:38.636Z,14.31
2023-04-08T10:28:11.451Z,14.36
2023-04-08T10:30:55.589Z,14.37
2023-04-08T10:33:26.149Z,14.41
2023-04-08T10:35:59.794Z,14.41
2023-04-08T10:38:27.441Z,14.44
2023-04-08T10:40:54.859Z,14.48
2023-04-08T10:43:22.459Z,14.48
2023-04-08T10:45:51.617Z,14.51
2023-04-08T10:48:23.206Z,14.54
2023-04-08T10:51:02.298Z,14.57
2023-04-08T10:53:33.944Z,14.58
2023-04-08T10:56:08.435Z,14.59
2023-04-08T10:58:37.006Z,14.61
2023-04-08T11:01:06.242Z,14.63
2023-04-08T11:03:37.640Z,14.63
2023-04-08T11:06:04.990Z,14.64
2023-04-08T11:08:32.962Z,14.65
2023-04-08T11:11:01.910Z,14.65
2023-04-08T11:13:29.249Z,14.67
2023-04-08T11:16:00.301Z,14.69
2023-04-08T11:18:27.505Z,14.70
2023-04-08T11:20:55.081Z,14.74
2023-04-08T11:23:23.126Z,14.77
2023-04-08T11:25:50.159Z,14.79
2023-04-08T11:28:17.217Z,14.83
2023-04-08T11:30:44.301Z,14.89
2023-04-08T11:33:11.452Z,14.92
2023-04-08T11:35:42.528Z,14.97
2023-04-08T11:38:10.508Z,15.02
2023-04-08T11:40:37.585Z,15.05
2023-04-08T11:43:11.829Z,15.08
2023-04-08T11:45:40.474Z,15.12
2023-04-08T11:48:15.471Z,15.14
2023-04-08T11:50:43.384Z,15.18
2023-04-08T11:53:25.759Z,15.21
2023-04-08T11:55:52.651Z,15.22
2023-04-08T11:58:20.028Z,15.24
2023-04-08T12:00:46.940Z,15.27
2023-04-08T12:03:13.976Z,15.26
2023-04-08T12:05:41.038Z,15.30
2023-04-08T12:08:07.874Z,15.30
2023-04-08T12:10:34.748Z,15.32
2023-04-08T12:13:01.668Z,15.34
2023-04-08T12:15:28.576Z,15.36
2023-04-08T12:17:56.131Z,15.38
2023-04-08T12:20:23.345Z,15.38
2023-04-08T12:22:50.176Z,15.40
2023-04-08T12:25:17.027Z,15.41
2023-04-08T12:27:43.837Z,15.42
2023-04-08T12:30:11.284Z,15.41
2023-04-08T12:32:38.260Z,15.41
2023-04-08T12:35:05.488Z,15.42
2023-04-08T12:37:33.572Z,15.43
2023-04-08T12:40:00.497Z,15.43
2023-04-08T12:42:28.134Z,15.44
2023-04-08T12:44:55.055Z,15.43
2023-04-08T12:47:23.639Z,15.44
2023-04-08T12:49:51.836Z,15.44
2023-04-08T12:52:18.996Z,15.47
2023-04-08T12:54:45.976Z,15.48
2023-04-08T12:57:13.069Z,15.49
2023-04-08T12:59:40.304Z,15.51
2023-04-08T13:02:08.240Z,15.53
2023-04-08T13:04:35.424Z,15.47
2023-04-08T13:07:02.567Z,15.51
2023-04-08T13:09:30.846Z,15.52
2023-04-08T13:11:58.554Z,15.53
2023-04-08T13:14:25.721Z,15.53
2023-04-08T13:16:52.741Z,15.55
2023-04-08T13:19:19.669Z,15.55
2023-04-08T13:21:46.599Z,15.57
2023-04-08T13:24:13.461Z,15.57
2023-04-08T13:26:40.625Z,15.57
2023-04-08T13:29:07.531Z,15.59
2023-04-08T13:31:34.533Z,15.62
2023-04-08T13:34:01.414Z,15.64
2023-04-08T13:36:29.251Z,15.64
2023-04-08T13:38:56.857Z,15.60
2023-04-08T13:41:23.767Z,15.63
2023-04-08T13:43:50.631Z,15.62
2023-04-08T13:46:18.426Z,15.63
2023-04-08T13:48:46.157Z,15.64
2023-04-08T13:51:13.810Z,15.65
2023-04-08T13:53:40.980Z,15.65
2023-04-08T13:56:08.122Z,15.66
2023-04-08T13:58:34.981Z,15.67
2023-04-08T14:01:02.059Z,15.64
2023-04-08T14:03:28.949Z,15.62
2023-04-08T14:05:55.969Z,15.64
2023-04-08T14:08:25.913Z,15.63
2023-04-08T14:10:53.777Z,15.64
2023-04-08T14:13:20.990Z,15.65
2023-04-08T14:15:48.480Z,15.67
2023-04-08T14:18:18.093Z,15.67
2023-04-08T14:20:44.940Z,15.68
2023-04-08T14:23:13.733Z,15.68
2023-04-08T14:25:41.042Z,15.68
2023-04-08T14:28:08.280Z,15.68
2023-04-08T14:30:36.404Z,15.68
2023-04-08T14:33:04.842Z,15.68
2023-04-08T14:35:31.773Z,15.69
2023-04-08T14:37:58.886Z,15.69
2023-04-08T14:40:25.708Z,15.69
2023-04-08T14:42:52.632Z,15.69
2023-04-08T14:45:19.614Z,15.68
2023-04-08T14:47:46.894Z,15.66
2023-04-08T14:50:13.754Z,15.67
2023-04-08T14:52:40.732Z,15.66
2023-04-08T14:55:07.819Z,15.66
2023-04-08T14:57:34.682Z,15.66
2023-04-08T15:00:02.034Z,15.65
2023-04-08T15:02:28.991Z,15.63
2023-04-08T15:04:56.291Z,15.62
2023-04-08T15:07:23.876Z,15.60
2023-04-08T15:09:50.697Z,15.59
2023-04-08T15:12:18.166Z,15.58
2023-04-08T15:14:44.992Z,15.59
2023-04-08T15:17:11.862Z,15.58
2023-04-08T15:19:38.735Z,15.58
2023-04-08T15:22:05.540Z,15.59
2023-04-08T15:24:32.410Z,15.61
2023-04-08T15:26:59.269Z,15.63
2023-04-08T15:29:26.333Z,15.67
2023-04-08T15:31:53.371Z,15.69
2023-04-08T15:34:20.241Z,15.69
2023-04-08T15:36:47.758Z,15.71
2023-04-08T15:39:15.013Z,15.71
2023-04-08T15:41:41.857Z,15.72
2023-04-08T15:44:08.727Z,15.72
2023-04-08T15:46:37.453Z,15.72
2023-04-08T15:49:04.858Z,15.72
2023-04-08T15:51:33.135Z,15.71
2023-04-08T15:53:59.977Z,15.73
2023-04-08T15:56:28.735Z,15.75
2023-04-08T15:58:59.085Z,15.77
2023-04-08T16:01:25.965Z,15.78
2023-04-08T16:03:52.965Z,15.79
2023-04-08T16:06:19.899Z,15.80
2023-04-08T16:08:47.459Z,15.81
2023-04-08T16:11:14.347Z,15.82
2023-04-08T16:13:42.686Z,15.83
2023-04-08T16:16:09.858Z,15.82
2023-04-08T16:18:36.715Z,15.81
2023-04-08T16:21:06.835Z,15.81
2023-04-08T16:23:35.712Z,15.79
2023-04-08T16:26:02.607Z,15.79
2023-04-08T16:28:29.536Z,15.79
2023-04-08T16:30:56.339Z,15.80
2023-04-08T16:33:29.891Z,15.73
2023-04-08T16:35:57.324Z,15.71
2023-04-08T16:38:25.195Z,15.72
2023-04-08T16:40:52.465Z,15.70
2023-04-08T16:43:19.473Z,15.69
2023-04-08T16:45:46.657Z,15.73
2023-04-08T16:48:13.770Z,15.67
2023-04-08T16:50:41.090Z,15.63
2023-04-08T16:53:08.000Z,15.60
2023-04-08T16:55:38.072Z,15.60
2023-04-08T16:58:04.951Z,15.64
2023-04-08T17:00:31.829Z,15.59
2023-04-08T17:02:59.603Z,15.57
2023-04-08T17:05:27.451Z,15.56
2023-04-08T17:07:56.645Z,15.56
2023-04-08T17:10:23.718Z,15.56
2023-04-08T17:12:50.634Z,15.56
2023-04-08T17:15:17.498Z,15.58
2023-04-08T17:17:44.327Z,15.51
2023-04-08T17:20:12.188Z,15.47
2023-04-08T17:22:38.999Z,15.45
2023-04-08T17:25:06.826Z,15.42
2023-04-08T17:27:33.887Z,15.41
2023-04-08T17:30:00.671Z,15.38
2023-04-08T17:32:27.762Z,15.37
2023-04-08T17:34:54.726Z,15.32
2023-04-08T17:37:21.718Z,15.32
2023-04-08T17:39:48.495Z,15.29
2023-04-08T17:42:15.297Z,15.27
2023-04-08T17:44:42.812Z,15.27
2023-04-08T17:47:09.676Z,15.23
2023-04-08T17:49:36.515Z,15.19
2023-04-08T17:52:03.602Z,15.15
2023-04-08T17:54:33.198Z,15.15
2023-04-08T17:57:00.155Z,15.11
2023-04-08T17:59:27.172Z,15.09
2023-04-08T18:01:54.221Z,15.07
2023-04-08T18:04:21.654Z,15.04
2023-04-08T18:06:48.575Z,15.05
2023-04-08T18:09:15.423Z,15.00
2023-04-08T18:11:42.236Z,15.01
2023-04-08T18:14:09.044Z,14.96
2023-04-08T18:16:36.091Z,14.98
2023-04-08T18:19:03.351Z,14.96
2023-04-08T18:21:30.132Z,14.91
2023-04-08T18:23:56.989Z,14.88
2023-04-08T18:26:24.089Z,14.81
2023-04-08T18:28:50.867Z,14.77
2023-04-08T18:31:17.801Z,14.73
2023-04-08T18:33:44.705Z,14.70
2023-04-08T18:36:12.804Z,14.67
2023-04-08T18:38:41.200Z,14.64
2023-04-08T18:41:08.547Z,14.60
2023-04-08T18:43:35.448Z,14.58
2023-04-08T18:46:02.385Z,14.52
2023-04-08T18:48:29.745Z,14.44
2023-04-08T18:50:56.885Z,14.39
2023-04-08T18:53:23.661Z,14.33
2023-04-08T18:55:51.420Z,14.32
2023-04-08T18:58:18.398Z,14.24
2023-04-08T19:00:45.290Z,14.14
2023-04-08T19:03:12.385Z,14.09
2023-04-08T19:05:39.285Z,14.07
2023-04-08T19:08:06.422Z,14.10
2023-04-08T19:10:34.179Z,14.21
2023-04-08T19:13:02.076Z,14.12
2023-04-08T19:15:29.242Z,13.98
2023-04-08T19:17:56.697Z,13.83
2023-04-08T19:20:23.692Z,13.77
2023-04-08T19:22:50.583Z,13.69
2023-04-08T19:25:17.890Z,13.77
2023-04-08T19:27:46.581Z,13.87
2023-04-08T19:30:13.865Z,13.76
2023-04-08T19:32:40.834Z,13.61
2023-04-08T19:35:08.204Z,13.56
2023-04-08T19:37:35.119Z,13.50
2023-04-08T19:40:01.943Z,13.55
2023-04-08T19:42:29.329Z,13.68
2023-04-08T19:44:56.445Z,13.71
2023-04-08T19:47:23.564Z,13.51
2023-04-08T19:49:50.436Z,13.34
2023-04-08T19:52:17.370Z,13.33
2023-04-08T19:54:44.266Z,13.22
2023-04-08T19:57:11.994Z,13.15
